• Join FlightAware (Why Join?)
  • Login
  • US Flag 
09:15PM EDT


 

Airport Tracker/Info


-or-


 

Live Flight TrackerFlight Track Log ✈ UAL5961 ✈ 23-Aug-2013 ✈ KORD - KCLT

Flight Track Log - Related Links

Times and Time Zones

All times are in EDT time to prevent confusion due to time zone crossing. See the UAL5961 flight status page for this flight to view local times or setup timezone preferences in your user account.

Time Position Orientation Groundspeed Altitude Reporting Facility
EDT Latitude Longitude Course Direction KTS MPH feet Rate Location/Type
12:35PM 41.9667 -87.8500 169° South 173 199 2,500  Level Chicago TRACON
12:37PM 41.8639 -87.7797 153° Southeast 250 288 5,000 780 Climbing Chicago Center
12:38PM 41.6705 -87.5452 156° South  Level Estimated
12:38PM 41.7703 -87.7742 177° South 273 314 5,000  Level Chicago Center
12:39PM 41.5685 -87.5629 187° South  Level FlightAware Approximate
12:39PM 41.6922 -87.7669 176° South 279 321 7,200  Level Chicago Center
12:40PM 41.4912 -87.4722 169° South  Level Estimated
12:40PM 41.6169 -87.7239 157° South 303 349 9,100  Level Chicago Center
12:41PM 41.5425 -87.6658 150° Southeast 308 354 10,900 1,740 Climbing Chicago Center
12:42PM 41.4669 -87.6044 149° Southeast 315 362 12,700 1,560 Climbing Chicago Center
12:43PM 41.3814 -87.5656 161° South 331 381 14,200 1,380 Climbing Chicago Center
12:44PM 41.2889 -87.5489 172° South 333 383 15,600 1,260 Climbing Chicago Center
12:45PM 41.1714 -87.5253 171° South 351 404 16,900 1,020 Climbing Chicago Center
12:46PM 41.0708 -87.4978 168° South 366 421 17,800 900 Climbing Chicago Center
12:47PM 40.9667 -87.4697 169° South 379 436 18,800 960 Climbing Chicago Center
12:48PM 40.8614 -87.4408 168° South 385 443 19,900 1,020 Climbing Chicago Center
12:49PM 40.7522 -87.4144 170° South 398 458 21,000 960 Climbing Chicago Center
12:50PM 40.6469 -87.3697 162° South 403 464 22,000 1,080 Climbing Chicago Center
12:51PM 40.5308 -87.2806 150° Southeast 405 466 23,300 1,020 Climbing Chicago Center
12:52PM 40.4411 -87.2142 151° Southeast 406 467 24,200 960 Climbing Chicago Center
12:53PM 40.3433 -87.1403 150° Southeast 408 470 25,300 1,080 Climbing Chicago Center
12:54PM 40.2242 -87.0533 151° Southeast 411 473 26,500 1,080 Climbing Chicago Center
12:56PM 40.1292 -86.9717 147° Southeast 413 475 27,600 960 Climbing Chicago Center
12:56PM 40.1008 -86.9233 127° Southeast 408 470 28,000 960 Climbing Indianapolis Center
12:57PM 40.0358 -86.8017 125° Southeast 408 470 29,100 1,080 Climbing Indianapolis Center
12:58PM 39.9581 -86.6564 125° Southeast 408 470 30,300 1,080 Climbing Indianapolis Center
12:59PM 39.8928 -86.5358 125° Southeast 408 470 31,400 960 Climbing Indianapolis Center
01:00PM 39.8283 -86.4158 125° Southeast 405 466 32,400 1,020 Climbing Indianapolis Center
01:01PM 39.7556 -86.2831 125° Southeast 411 473 33,600 1,020 Climbing Indianapolis Center
01:02PM 39.6900 -86.1619 125° Southeast 409 471 34,600 660 Climbing Indianapolis Center
01:03PM 39.6264 -86.0456 125° Southeast 403 464 35,000 180 Climbing Indianapolis Center
01:04PM 39.5586 -85.9219 125° Southeast 417 480 35,000  Level Indianapolis Center
01:05PM 39.4861 -85.7922 126° Southeast 439 505 35,000  Level Indianapolis Center
01:06PM 39.4128 -85.6567 125° Southeast 458 527 35,000  Level Indianapolis Center
01:07PM 39.3197 -85.4903 126° Southeast 474 545 35,000  Level Indianapolis Center
01:08PM 39.2406 -85.3503 126° Southeast 482 555 35,000  Level Indianapolis Center
01:09PM 39.1625 -85.2117 126° Southeast 481 554 35,000  Level Indianapolis Center
01:10PM 39.0853 -85.0728 126° Southeast 480 552 35,000  Level Indianapolis Center
01:12PM 39.0061 -84.9350 126° Southeast 479 551 35,000  Level Indianapolis Center
01:13PM 38.9169 -84.7781 126° Southeast 476 548 35,000  Level Indianapolis Center
01:14PM 38.8358 -84.6350 126° Southeast 475 547 35,000  Level Indianapolis Center
01:15PM 38.7625 -84.5064 126° Southeast 475 547 35,000  Level Indianapolis Center
01:16PM 38.6831 -84.3714 127° Southeast 475 547 35,000  Level Indianapolis Center
01:17PM 38.5853 -84.2461 135° Southeast 469 540 35,000  Level Indianapolis Center
01:18PM 38.4647 -84.1228 141° Southeast 475 547 35,000  Level Indianapolis Center
01:19PM 38.3625 -84.0186 141° Southeast 469 540 35,000 -600 Level Indianapolis Center
01:20PM 38.2581 -83.9136 142° Southeast 477 549 33,800 -1,020 Descending Indianapolis Center
01:21PM 38.1542 -83.8089 142° Southeast 476 548 33,000 -420 Descending Indianapolis Center
01:22PM 38.0531 -83.7078 142° Southeast 461 531 33,000  Level Indianapolis Center
01:23PM 37.9522 -83.6058 141° Southeast 460 529 33,000  Level Indianapolis Center
01:24PM 37.8322 -83.4864 142° Southeast 469 540 33,000  Level Indianapolis Center
01:25PM 37.7292 -83.3814 141° Southeast 472 543 33,000  Level Indianapolis Center
01:26PM 37.6236 -83.2786 142° Southeast 477 549 33,000 -60 Level Indianapolis Center
01:27PM 37.5178 -83.1744 142° Southeast 480 552 32,900 -960 Descending Indianapolis Center
01:28PM 37.4131 -83.0717 142° Southeast 477 549 31,100 -1,860 Descending Indianapolis Center
01:29PM 37.3089 -82.9694 142° Southeast 473 544 29,100 -1,020 Descending Indianapolis Center
01:30PM 37.1933 -82.8556 142° Southeast 453 521 29,000 -60 Descending Indianapolis Center
01:31PM 37.0925 -82.7572 142° Southeast 452 520 29,000  Level Indianapolis Center
01:32PM 36.9886 -82.6575 143° Southeast 459 528 29,000  Level Indianapolis Center
01:33PM 36.8842 -82.5583 143° Southeast 464 534 29,000 -300 Level Indianapolis Center
01:34PM 36.7581 -82.5253 168° South 459 528 28,400 -1,260 Descending Indianapolis Center
01:35PM 36.6283 -82.5000 171° South 464 534 26,400 -2,100 Descending Indianapolis Center
01:36PM 36.5406 -82.4858 173° South 468 539 25,100 -960 Descending Atlanta Center
01:37PM 36.4111 -82.4625 172° South 468 539 24,900 -480 Descending Atlanta Center
01:38PM 36.2158 -82.4275 172° South 465 535 24,000 -360 Descending Indianapolis Center
01:39PM 36.0908 -82.3894 166° South 463 533 24,000 -420 Level Indianapolis Center
01:40PM 35.9969 -82.2811 137° Southeast 469 540 23,200 -1,260 Descending Indianapolis Center
01:42PM 35.9011 -82.1058 124° Southeast 440 506 21,000 -1,860 Descending Atlanta Center
01:43PM 35.8325 -81.9844 125° Southeast 439 505 18,800 -2,220 Descending Atlanta Center
01:44PM 35.7658 -81.8686 125° Southeast 426 490 16,600 -2,520 Descending Atlanta Center
01:45PM 35.6969 -81.7503 126° Southeast 381 438 13,900 -2,640 Descending Atlanta Center
01:46PM 35.6558 -81.6747 124° Southeast 367 422 12,200 -1,140 Descending Atlanta Center
01:47PM 35.6039 -81.5792 124° Southeast 322 371 12,000 -120 Descending Atlanta Center
01:48PM 35.5458 -81.4939 130° Southeast 318 366 12,000  Level Atlanta Center
01:49PM 35.4792 -81.3942 129° Southeast 331 381 12,000 -180 Level Atlanta Center
01:50PM 35.4208 -81.3067 129° Southeast 336 387 11,700 -720 Descending Atlanta Center
01:51PM 35.3711 -81.2319 129° Southeast 303 349 10,700 -1,140 Descending Atlanta Center
01:52PM 35.3150 -81.1525 131° Southeast 301 346 9,600 -840 Descending Atlanta Center
01:53PM 35.2550 -81.0808 136° Southeast 307 353 9,000 -660 Descending Atlanta Center
01:54PM 35.1689 -81.0661 172° South 295 339 8,300 -900 Descending Atlanta Center
01:55PM 35.0917 -81.0636 178° South 277 319 7,300 -1,200 Descending Atlanta Center
01:56PM 35.0242 -81.0333 160° South 268 308 5,900 -1,800 Descending Atlanta Center
01:57PM 35.0664 -80.9658 53° Northeast 248 285 3,500 -1,920 Descending Atlanta Center
01:58PM 35.1353 -80.9631 North 238 274 1,900 -1,200 Descending Atlanta Center
01:59PM 35.1853 -80.9664 357° North 153 176 1,100 -840 Descending Atlanta Center